• Join FlightAware (Why Join?)
  • Login
  • US Flag 
03:30PM EDT


 

Airport Tracker/Info


-or-


 

Live Flight TrackerFlight Track Log ✈ ASQ5678 ✈ 01-May-2013 ✈ KIAH - KABQ

Flight Track Log - Related Links

Times and Time Zones

All times are in EDT time to prevent confusion due to time zone crossing. See the ASQ5678 flight status page for this flight to view local times or setup timezone preferences in your user account.

Time Position Orientation Groundspeed Altitude Reporting Facility
EDT Latitude Longitude Course Direction KTS MPH feet Rate Location/Type
10:09PM 29.9550 -95.3394 291° West 168 193 800  Level Houston Center
10:09PM 29.9211 -95.3581 205° Southwest 219 252 2,000 1,500 Climbing Houston Center
10:10PM 29.9086 -95.3811 238° Southwest 229 264 2,700 2,040 Climbing Houston Center
10:10PM 29.9108 -95.4317 273° West 265 305 4,100 2,340 Climbing Houston Center
10:11PM 29.9178 -95.4594 286° West 251 289 5,100 2,820 Climbing Houston Center
10:11PM 29.9311 -95.5161 285° West 264 304 7,000 2,940 Climbing Houston Center
10:12PM 30.0342 -95.8099 276° West  Level FlightAware Approximate
10:12PM 29.9389 -95.5400 291° West 262 302 8,100  Level Houston Center
10:13PM 30.0442 -95.9298 276° West  Level FlightAware Approximate
10:13PM 29.9600 -95.6203 287° West 261 300 9,900  Level Houston Center
10:14PM 30.0655 -96.0466 291° West  Level FlightAware Approximate
10:14PM 29.9833 -95.7133 286° West 295 339 11,000  Level Houston Center
10:15PM 30.0086 -95.8147 286° West 327 376 12,800 1,980 Climbing Houston Center
10:16PM 30.0381 -95.9361 286° West 328 377 15,100 1,920 Climbing Houston Center
10:17PM 30.0625 -96.0317 286° West 329 379 16,800 1,320 Climbing Houston Center
10:18PM 30.0775 -96.1400 279° West 340 391 17,800 960 Climbing Houston Center
10:19PM 30.0597 -96.2608 260° West 378 435 18,800 960 Climbing Houston Center
10:20PM 30.0428 -96.3833 261° West 388 447 19,800 1,020 Climbing Houston Center
10:21PM 30.0247 -96.5100 261° West 399 459 20,900 1,140 Climbing Houston Center
10:22PM 30.0072 -96.6353 261° West 399 459 22,200 1,200 Climbing Houston Center
10:23PM 29.9903 -96.7606 261° West 398 458 23,400 1,140 Climbing Houston Center
10:24PM 29.9689 -96.9117 261° West 400 460 24,600 1,080 Climbing Houston Center
10:25PM 29.9506 -97.0375 260° West 401 461 25,600 960 Climbing Houston Center
10:26PM 29.9319 -97.1669 261° West 409 471 26,600 1,080 Climbing Houston Center
10:27PM 29.9136 -97.2922 260° West 403 464 27,900 660 Climbing Houston Center
10:28PM 29.8958 -97.4183 261° West 402 463 28,000  Climbing Houston Center
10:29PM 29.8725 -97.5697 260° West 424 488 28,000  Level Houston Center
10:30PM 29.8525 -97.7069 260° West 435 501 28,000 780 Level Houston Center
10:31PM 29.8319 -97.8447 260° West 436 502 29,600 1,860 Climbing Houston Center
10:32PM 29.8142 -97.9686 261° West 396 456 31,800 1,140 Climbing Houston Center
10:33PM 29.7942 -98.1003 260° West 390 449 32,000 240 Climbing Houston Center
10:34PM 29.7744 -98.2325 260° West 418 481 32,400 900 Climbing Houston Center
10:35PM 29.7539 -98.3628 260° West 415 478 33,900 780 Climbing Houston Center
10:36PM 29.7153 -98.4875 250° West 417 480 34,000  Climbing Houston Center
10:37PM 29.6719 -98.6283 251° West 437 503 34,000  Level Houston Center
10:38PM 29.6325 -98.7642 252° West 449 517 34,000  Level Houston Center
10:39PM 29.5933 -98.9022 252° West 456 525 34,000  Level Houston Center
10:40PM 29.5547 -99.0408 252° West 456 525 34,000  Level Houston Center
10:41PM 29.5103 -99.1853 251° West 448 516 34,000  Level Houston Center
10:42PM 29.4675 -99.3175 250° West 444 511 34,000 -60 Level Houston Center
10:43PM 29.4311 -99.4306 250° West 448 516 33,900 -60 Descending Houston Center
10:44PM 29.3883 -99.5694 251° West 460 529 33,900 480 Level Houston Center
10:45PM 29.3469 -99.7061 251° West 457 526 34,900 1,020 Climbing Houston Center
10:46PM 29.2939 -99.8603 248° West 446 513 36,000 540 Climbing Houston Center
10:47PM 29.2486 -99.9822 247° West 430 495 36,000 -60 Level Houston Center
10:48PM 29.2250 -100.1028 257° West 398 458 35,900 -60 Descending Houston Center
10:49PM 29.2475 -100.2269 282° West 402 463 35,900  Level Houston Center
10:50PM 29.2739 -100.3536 283° West 408 470 36,000  Climbing Houston Center
10:51PM 29.3022 -100.4844 284° West 419 482 36,000 -60 Level Houston Center
10:52PM 29.3281 -100.6192 282° West 431 496 35,900  Descending Houston Center
10:53PM 29.3692 -100.7517 290° West 454 522 36,000  Climbing Houston Center
10:54PM 29.4550 -100.8508 315° West 442 509 35,900  Descending Houston Center
10:55PM 29.5347 -100.9469 314° West 421 484 36,000  Climbing Houston Center
10:56PM 29.6139 -101.0486 312° West 426 490 36,000  Level Houston Center
10:58PM 29.6881 -101.1556 309° West 423 487 36,000 -60 Level Houston Center
10:59PM 29.7581 -101.2656 306° West 428 493 35,900  Descending Houston Center
11:00PM 29.8303 -101.3764 307° West 432 497 36,000  Climbing Houston Center
11:01PM 29.9033 -101.4894 307° West 438 504 36,000  Level Houston Center
11:02PM 29.9789 -101.6042 307° West 447 514 36,000  Level Houston Center
11:03PM 30.0583 -101.7136 310° West 448 516 36,000  Level Houston Center
11:04PM 30.1572 -101.7950 325° Northwest 429 494 36,000  Level Houston Center
11:05PM 30.2647 -101.8858 324° Northwest 433 498 36,000  Level Houston Center
11:06PM 30.3636 -101.9672 325° Northwest 438 504 36,000  Level Albuquerque Center
11:08PM 30.5544 -102.1325 323° Northwest 423 487 36,000  Level Albuquerque Center
11:09PM 30.6694 -102.2306 324° Northwest 424 488 36,000  Level Albuquerque Center
11:10PM 30.7672 -102.3150 323° Northwest 431 496 36,000  Level Albuquerque Center
11:11PM 30.8672 -102.4022 323° Northwest 442 509 36,000  Level Albuquerque Center
11:12PM 30.9681 -102.4894 323° Northwest 446 513 36,000  Level Albuquerque Center
11:13PM 31.0700 -102.5792 323° Northwest 452 520 36,000  Level Albuquerque Center
11:14PM 31.1717 -102.6678 323° Northwest 450 518 36,000  Level Albuquerque Center
11:15PM 31.2722 -102.7564 323° Northwest 450 518 36,000  Level Albuquerque Center
11:16PM 31.3711 -102.8436 323° Northwest 445 512 36,000 -60 Level Albuquerque Center
11:17PM 31.4678 -102.9286 323° Northwest 436 502 35,900  Descending Albuquerque Center
11:18PM 31.5628 -103.0131 323° Northwest 431 496 36,000 60 Climbing Albuquerque Center
11:18PM 31.6019 -103.0464 324° Northwest 431 496 36,000 -120 Level Albuquerque Center
11:19PM 31.6975 -103.1319 323° Northwest 431 496 35,900  Descending Albuquerque Center
11:20PM 31.8117 -103.2331 323° Northwest 428 493 36,000  Climbing Albuquerque Center
11:21PM 31.8903 -103.3028 323° Northwest 425 489 36,000  Level Albuquerque Center
11:22PM 31.9836 -103.3878 322° Northwest 423 487 36,000  Level Albuquerque Center
11:23PM 32.0997 -103.4922 323° Northwest 431 496 36,000  Level Albuquerque Center
11:24PM 32.1939 -103.5758 323° Northwest 427 491 36,000  Level Albuquerque Center
11:25PM 32.2850 -103.6592 322° Northwest 418 481 36,000  Level Albuquerque Center
11:27PM 32.3786 -103.7428 323° Northwest 417 480 36,000  Level Albuquerque Center
11:28PM 32.4725 -103.8294 322° Northwest 426 490 36,000  Level Albuquerque Center
11:29PM 32.5686 -103.9161 323° Northwest 430 495 36,000  Level Albuquerque Center
11:30PM 32.6761 -104.0103 324° Northwest 438 504 36,000  Level Albuquerque Center
11:31PM 32.7806 -104.1044 323° Northwest 437 503 36,000  Level Albuquerque Center
11:32PM 32.8761 -104.1931 322° Northwest 434 499 36,000  Level Albuquerque Center
11:33PM 32.9708 -104.2806 322° Northwest 431 496 36,000  Level Albuquerque Center
11:34PM 33.0717 -104.3747 322° Northwest 427 491 36,000  Level Albuquerque Center
11:35PM 33.1658 -104.4619 322° Northwest 427 491 36,000  Level Albuquerque Center
11:36PM 33.2533 -104.5447 322° Northwest 426 490 36,000  Level Albuquerque Center
11:37PM 33.3539 -104.6406 321° Northwest 425 489 36,000  Level Albuquerque Center
11:38PM 33.4419 -104.7286 320° Northwest 414 476 36,000  Level Albuquerque Center
11:39PM 33.5339 -104.8228 320° Northwest 404 465 36,000 -240 Level Albuquerque Center
11:40PM 33.6189 -104.9089 320° Northwest 400 460 35,600 -660 Descending Albuquerque Center
11:41PM 33.7064 -104.9981 320° Northwest 409 471 34,700 -960 Descending Albuquerque Center
11:42PM 33.7961 -105.0892 320° Northwest 420 483 33,700 -960 Descending Albuquerque Center
11:43PM 33.8894 -105.1858 319° Northwest 411 473 32,800 -840 Descending Albuquerque Center
11:44PM 33.9772 -105.2742 320° Northwest 407 468 32,000 -420 Descending Albuquerque Center
11:45PM 34.0650 -105.3644 320° Northwest 408 470 32,000  Level Albuquerque Center
11:46PM 34.1525 -105.4547 320° Northwest 410 472 32,000 -120 Level Albuquerque Center
11:47PM 34.2392 -105.5458 319° Northwest 409 471 31,800 -1,080 Descending Albuquerque Center
11:48PM 34.3253 -105.6333 320° Northwest 405 466 29,900 -2,100 Descending Albuquerque Center
11:49PM 34.4189 -105.7172 324° Northwest 414 476 27,600 -2,100 Descending Albuquerque Center
11:50PM 34.5211 -105.7903 330° Northwest 419 482 25,600 -1,740 Descending Albuquerque Center
11:51PM 34.6047 -105.8556 327° Northwest 407 468 24,400 -2,040 Descending Albuquerque Center
11:51PM 34.6489 -105.8878 329° Northwest 395 455 22,900 -3,180 Descending Albuquerque Center
11:52PM 34.7108 -105.9303 331° Northwest 395 455 20,600 -3,600 Descending Albuquerque Center
11:52PM 34.7433 -105.9608 322° Northwest 375 432 19,300 -3,060 Descending Albuquerque Center
11:53PM 34.8011 -105.9983 332° Northwest 383 441 17,500 -2,460 Descending Albuquerque Center
11:54PM 34.8814 -106.0744 322° Northwest 370 426 15,100 -1,260 Descending Albuquerque Center
11:55PM 34.9008 -106.1814 283° West 329 379 15,000 -360 Descending Albuquerque Center
11:56PM 34.9219 -106.2903 283° West 325 374 14,400 -720 Descending Albuquerque Center
11:56PM 34.9278 -106.3344 279° West 338 389 14,100 -1,500 Descending Albuquerque Center
11:57PM 34.9411 -106.4050 283° West 342 394 12,900 -1,800 Descending Albuquerque Center
11:57PM 34.9456 -106.4467 277° West 343 395 12,300 -1,980 Descending Albuquerque Center
11:58PM 34.9197 -106.5033 241° Southwest 322 371 10,900 -1,500 Descending Albuquerque Center
11:59PM 34.8750 -106.5883 237° Southwest 307 353 9,600 -1,380 Descending Albuquerque Center
12:00AM 34.8444 -106.6850 249° West 287 330 8,100 -1,080 Descending Albuquerque Center
12:01AM 34.8928 -106.7253 326° Northwest 237 273 7,500 -420 Descending Albuquerque Center
12:02AM 34.9433 -106.7214 North 203 234 7,300 -240 Descending Albuquerque Center